sensor_id;sensor_type;location;lat;lon;timestamp;pressure;altitude;pressure_sealevel;temperature;humidity
59272;BME280;45043;51.068;7.026;2024-01-25T00:00:39;101603.63;;;5.10;66.26
59272;BME280;45043;51.068;7.026;2024-01-25T00:03:40;101610.81;;;5.08;66.00
59272;BME280;45043;51.068;7.026;2024-01-25T00:06:40;101594.09;;;5.09;67.13
59272;BME280;45043;51.068;7.026;2024-01-25T00:09:41;101633.69;;;5.07;66.84
59272;BME280;45043;51.068;7.026;2024-01-25T00:12:42;101608.44;;;5.05;66.41
59272;BME280;45043;51.068;7.026;2024-01-25T00:15:43;101599.59;;;5.06;66.82
59272;BME280;45043;51.068;7.026;2024-01-25T00:18:44;101618.47;;;5.11;66.76
59272;BME280;45043;51.068;7.026;2024-01-25T00:21:44;101604.22;;;5.13;66.78
59272;BME280;45043;51.068;7.026;2024-01-25T00:24:45;101612.94;;;5.14;66.59
59272;BME280;45043;51.068;7.026;2024-01-25T00:27:45;101613.66;;;5.16;66.52
59272;BME280;45043;51.068;7.026;2024-01-25T00:30:47;101608.25;;;5.17;66.38
59272;BME280;45043;51.068;7.026;2024-01-25T00:33:48;101610.47;;;5.22;66.52
59272;BME280;45043;51.068;7.026;2024-01-25T00:36:48;101606.75;;;5.25;66.32
59272;BME280;45043;51.068;7.026;2024-01-25T00:39:49;101608.44;;;5.26;66.39
59272;BME280;45043;51.068;7.026;2024-01-25T00:42:50;101614.41;;;5.28;66.55
59272;BME280;45043;51.068;7.026;2024-01-25T00:45:54;101645.22;;;5.27;66.48
59272;BME280;45043;51.068;7.026;2024-01-25T00:48:54;101601.59;;;5.23;66.53
59272;BME280;45043;51.068;7.026;2024-01-25T00:51:59;101620.91;;;5.24;66.92
59272;BME280;45043;51.068;7.026;2024-01-25T00:55:00;101625.19;;;5.25;66.91
59272;BME280;45043;51.068;7.026;2024-01-25T00:58:02;101608.66;;;5.23;66.85
59272;BME280;45043;51.068;7.026;2024-01-25T01:01:03;101609.63;;;5.22;67.03
59272;BME280;45043;51.068;7.026;2024-01-25T01:04:05;101651.06;;;5.19;66.96
59272;BME280;45043;51.068;7.026;2024-01-25T01:07:06;101651.47;;;5.15;67.36
59272;BME280;45043;51.068;7.026;2024-01-25T01:10:08;101630.56;;;5.13;67.33
59272;BME280;45043;51.068;7.026;2024-01-25T01:13:09;101626.25;;;5.12;67.33
59272;BME280;45043;51.068;7.026;2024-01-25T01:16:10;101639.69;;;5.09;67.38
59272;BME280;45043;51.068;7.026;2024-01-25T01:19:10;101633.84;;;5.06;67.45
59272;BME280;45043;51.068;7.026;2024-01-25T01:22:11;101637.00;;;5.00;67.60
59272;BME280;45043;51.068;7.026;2024-01-25T01:25:12;101623.25;;;4.96;67.76
59272;BME280;45043;51.068;7.026;2024-01-25T01:28:13;101632.25;;;4.93;67.39
59272;BME280;45043;51.068;7.026;2024-01-25T01:31:14;101639.72;;;4.88;67.81
59272;BME280;45043;51.068;7.026;2024-01-25T01:34:15;101642.75;;;4.84;67.79
59272;BME280;45043;51.068;7.026;2024-01-25T01:37:18;101634.00;;;4.83;67.89
59272;BME280;45043;51.068;7.026;2024-01-25T01:40:18;101626.38;;;4.80;67.77
59272;BME280;45043;51.068;7.026;2024-01-25T01:43:20;101640.63;;;4.78;67.92
59272;BME280;45043;51.068;7.026;2024-01-25T01:46:37;101634.09;;;4.72;68.24
59272;BME280;45043;51.068;7.026;2024-01-25T01:49:38;101641.00;;;4.73;68.12
59272;BME280;45043;51.068;7.026;2024-01-25T01:52:39;101643.91;;;4.70;68.15
59272;BME280;45043;51.068;7.026;2024-01-25T01:55:40;101639.59;;;4.69;67.85
59272;BME280;45043;51.068;7.026;2024-01-25T01:58:42;101653.75;;;4.68;67.87
59272;BME280;45043;51.068;7.026;2024-01-25T02:01:44;101632.69;;;4.68;68.18
59272;BME280;45043;51.068;7.026;2024-01-25T02:04:45;101645.94;;;4.66;68.40
59272;BME280;45043;51.068;7.026;2024-01-25T02:07:46;101652.31;;;4.64;68.21
59272;BME280;45043;51.068;7.026;2024-01-25T02:10:46;101640.13;;;4.63;68.06
59272;BME280;45043;51.068;7.026;2024-01-25T02:13:47;101656.63;;;4.65;68.08
59272;BME280;45043;51.068;7.026;2024-01-25T02:16:47;101654.00;;;4.65;67.96
59272;BME280;45043;51.068;7.026;2024-01-25T02:19:48;101670.03;;;4.62;68.21
59272;BME280;45043;51.068;7.026;2024-01-25T02:22:49;101666.69;;;4.60;68.12
59272;BME280;45043;51.068;7.026;2024-01-25T02:25:50;101683.44;;;4.59;68.37
59272;BME280;45043;51.068;7.026;2024-01-25T02:28:50;101681.78;;;4.58;68.66
59272;BME280;45043;51.068;7.026;2024-01-25T02:31:52;101701.03;;;4.58;68.18
59272;BME280;45043;51.068;7.026;2024-01-25T02:34:52;101692.06;;;4.61;68.23
59272;BME280;45043;51.068;7.026;2024-01-25T02:37:53;101694.69;;;4.61;68.68
59272;BME280;45043;51.068;7.026;2024-01-25T02:40:54;101696.09;;;4.65;68.44
59272;BME280;45043;51.068;7.026;2024-01-25T02:43:54;101717.84;;;4.67;68.53
59272;BME280;45043;51.068;7.026;2024-01-25T02:46:55;101700.41;;;4.66;68.57
59272;BME280;45043;51.068;7.026;2024-01-25T02:49:56;101690.00;;;4.64;68.50
59272;BME280;45043;51.068;7.026;2024-01-25T02:52:57;101695.13;;;4.66;68.54
59272;BME280;45043;51.068;7.026;2024-01-25T02:55:58;101694.16;;;4.67;68.54
59272;BME280;45043;51.068;7.026;2024-01-25T02:58:59;101692.25;;;4.69;68.57
59272;BME280;45043;51.068;7.026;2024-01-25T03:02:00;101716.78;;;4.69;68.51
59272;BME280;45043;51.068;7.026;2024-01-25T03:05:00;101701.69;;;4.72;68.92
59272;BME280;45043;51.068;7.026;2024-01-25T03:08:01;101692.69;;;4.74;68.81
59272;BME280;45043;51.068;7.026;2024-01-25T03:11:02;101700.72;;;4.73;68.64
59272;BME280;45043;51.068;7.026;2024-01-25T03:14:05;101683.28;;;4.72;68.78
59272;BME280;45043;51.068;7.026;2024-01-25T03:17:05;101681.00;;;4.67;69.05
59272;BME280;45043;51.068;7.026;2024-01-25T03:20:06;101681.16;;;4.65;68.83
59272;BME280;45043;51.068;7.026;2024-01-25T03:23:07;101678.91;;;4.61;69.31
59272;BME280;45043;51.068;7.026;2024-01-25T03:26:09;101685.38;;;4.57;69.18
59272;BME280;45043;51.068;7.026;2024-01-25T03:29:09;101689.22;;;4.53;69.56
59272;BME280;45043;51.068;7.026;2024-01-25T03:32:10;101677.28;;;4.49;69.86
59272;BME280;45043;51.068;7.026;2024-01-25T03:35:11;101675.75;;;4.46;69.59
59272;BME280;45043;51.068;7.026;2024-01-25T03:38:12;101699.53;;;4.44;69.82
59272;BME280;45043;51.068;7.026;2024-01-25T03:41:14;101691.66;;;4.44;69.90
59272;BME280;45043;51.068;7.026;2024-01-25T03:44:15;101693.59;;;4.42;69.77
59272;BME280;45043;51.068;7.026;2024-01-25T03:47:16;101712.00;;;4.42;69.52
59272;BME280;45043;51.068;7.026;2024-01-25T03:50:16;101714.03;;;4.39;69.81
59272;BME280;45043;51.068;7.026;2024-01-25T03:53:17;101718.00;;;4.33;69.54
59272;BME280;45043;51.068;7.026;2024-01-25T03:56:17;101706.78;;;4.31;69.92
59272;BME280;45043;51.068;7.026;2024-01-25T03:59:18;101698.06;;;4.31;69.98
59272;BME280;45043;51.068;7.026;2024-01-25T04:02:19;101711.31;;;4.29;69.99
59272;BME280;45043;51.068;7.026;2024-01-25T04:05:20;101721.16;;;4.27;70.37
59272;BME280;45043;51.068;7.026;2024-01-25T04:08:21;101714.34;;;4.25;70.15
59272;BME280;45043;51.068;7.026;2024-01-25T04:11:22;101714.56;;;4.21;70.15
59272;BME280;45043;51.068;7.026;2024-01-25T04:14:22;101724.25;;;4.21;70.10
59272;BME280;45043;51.068;7.026;2024-01-25T04:17:23;101713.75;;;4.21;70.36
59272;BME280;45043;51.068;7.026;2024-01-25T04:20:23;101717.34;;;4.20;70.24
59272;BME280;45043;51.068;7.026;2024-01-25T04:23:24;101720.06;;;4.18;70.56
59272;BME280;45043;51.068;7.026;2024-01-25T04:26:24;101728.94;;;4.17;70.54
59272;BME280;45043;51.068;7.026;2024-01-25T04:29:25;101729.19;;;4.14;70.25
59272;BME280;45043;51.068;7.026;2024-01-25T04:32:26;101731.69;;;4.16;70.58
59272;BME280;45043;51.068;7.026;2024-01-25T04:35:26;101726.44;;;4.16;70.74
59272;BME280;45043;51.068;7.026;2024-01-25T04:38:27;101742.22;;;4.16;70.28
59272;BME280;45043;51.068;7.026;2024-01-25T04:41:28;101733.38;;;4.17;70.41
59272;BME280;45043;51.068;7.026;2024-01-25T04:44:28;101723.09;;;4.14;70.67
59272;BME280;45043;51.068;7.026;2024-01-25T04:47:29;101723.09;;;4.14;70.51
59272;BME280;45043;51.068;7.026;2024-01-25T04:50:29;101724.16;;;4.11;70.55
59272;BME280;45043;51.068;7.026;2024-01-25T04:53:30;101725.00;;;4.12;70.41
59272;BME280;45043;51.068;7.026;2024-01-25T04:56:31;101730.25;;;4.12;70.67
59272;BME280;45043;51.068;7.026;2024-01-25T04:59:33;101725.25;;;4.09;70.73
59272;BME280;45043;51.068;7.026;2024-01-25T05:02:34;101738.16;;;4.01;71.05
59272;BME280;45043;51.068;7.026;2024-01-25T05:05:37;101734.25;;;3.95;70.81
59272;BME280;45043;51.068;7.026;2024-01-25T05:08:38;101734.38;;;3.82;71.41
59272;BME280;45043;51.068;7.026;2024-01-25T05:11:39;101741.91;;;3.76;71.47
59272;BME280;45043;51.068;7.026;2024-01-25T05:14:40;101742.53;;;3.68;71.89
59272;BME280;45043;51.068;7.026;2024-01-25T05:17:41;101735.13;;;3.62;71.92
59272;BME280;45043;51.068;7.026;2024-01-25T05:20:41;101723.41;;;3.66;71.89
59272;BME280;45043;51.068;7.026;2024-01-25T05:23:42;101724.81;;;3.70;71.48
59272;BME280;45043;51.068;7.026;2024-01-25T05:26:43;101723.53;;;3.76;71.47
59272;BME280;45043;51.068;7.026;2024-01-25T05:29:43;101723.38;;;3.77;71.58
59272;BME280;45043;51.068;7.026;2024-01-25T05:32:44;101729.84;;;3.73;71.85
59272;BME280;45043;51.068;7.026;2024-01-25T05:35:46;101720.31;;;3.72;71.95
59272;BME280;45043;51.068;7.026;2024-01-25T05:38:47;101729.97;;;3.71;71.72
59272;BME280;45043;51.068;7.026;2024-01-25T05:41:47;101728.19;;;3.72;71.58
59272;BME280;45043;51.068;7.026;2024-01-25T05:44:48;101720.31;;;3.72;71.63
59272;BME280;45043;51.068;7.026;2024-01-25T05:47:49;101707.41;;;3.69;71.36
59272;BME280;45043;51.068;7.026;2024-01-25T05:50:49;101716.72;;;3.62;71.60
59272;BME280;45043;51.068;7.026;2024-01-25T05:53:50;101717.78;;;3.59;71.72
59272;BME280;45043;51.068;7.026;2024-01-25T05:56:51;101727.34;;;3.71;72.09
59272;BME280;45043;51.068;7.026;2024-01-25T05:59:52;101728.84;;;3.96;71.56
59272;BME280;45043;51.068;7.026;2024-01-25T06:02:52;101737.19;;;4.13;70.78
59272;BME280;45043;51.068;7.026;2024-01-25T06:05:53;101739.28;;;4.30;70.86
59272;BME280;45043;51.068;7.026;2024-01-25T06:08:54;101739.72;;;4.47;70.40
59272;BME280;45043;51.068;7.026;2024-01-25T06:11:55;101742.06;;;4.61;69.55
59272;BME280;45043;51.068;7.026;2024-01-25T06:14:56;101749.69;;;4.64;69.35
59272;BME280;45043;51.068;7.026;2024-01-25T06:17:56;101752.06;;;4.67;69.05
59272;BME280;45043;51.068;7.026;2024-01-25T06:20:57;101742.50;;;4.66;68.90
59272;BME280;45043;51.068;7.026;2024-01-25T06:23:58;101743.38;;;4.87;68.66
59272;BME280;45043;51.068;7.026;2024-01-25T06:26:59;101751.22;;;4.99;68.25
59272;BME280;45043;51.068;7.026;2024-01-25T06:30:00;101752.22;;;5.07;67.70
59272;BME280;45043;51.068;7.026;2024-01-25T06:33:00;101753.44;;;5.03;67.24
59272;BME280;45043;51.068;7.026;2024-01-25T06:36:01;101765.94;;;5.01;67.21
59272;BME280;45043;51.068;7.026;2024-01-25T06:39:02;101772.53;;;4.96;66.75
59272;BME280;45043;51.068;7.026;2024-01-25T06:42:04;101772.78;;;4.92;66.49
59272;BME280;45043;51.068;7.026;2024-01-25T06:45:09;101770.16;;;4.92;66.15
59272;BME280;45043;51.068;7.026;2024-01-25T06:48:10;101783.06;;;4.96;66.12
59272;BME280;45043;51.068;7.026;2024-01-25T06:51:10;101782.81;;;4.99;66.06
59272;BME280;45043;51.068;7.026;2024-01-25T06:54:11;101784.66;;;5.08;65.70
59272;BME280;45043;51.068;7.026;2024-01-25T06:57:12;101786.28;;;5.20;65.33
59272;BME280;45043;51.068;7.026;2024-01-25T07:00:15;101798.03;;;5.27;64.92
59272;BME280;45043;51.068;7.026;2024-01-25T07:03:16;101813.28;;;5.33;64.99
59272;BME280;45043;51.068;7.026;2024-01-25T07:06:17;101810.41;;;5.36;64.73
59272;BME280;45043;51.068;7.026;2024-01-25T07:09:20;101810.34;;;5.48;64.50
59272;BME280;45043;51.068;7.026;2024-01-25T07:12:20;101799.38;;;5.52;64.13
59272;BME280;45043;51.068;7.026;2024-01-25T07:15:21;101804.28;;;5.57;63.79
59272;BME280;45043;51.068;7.026;2024-01-25T07:18:22;101797.13;;;5.69;63.54
59272;BME280;45043;51.068;7.026;2024-01-25T07:21:24;101802.31;;;5.80;63.10
59272;BME280;45043;51.068;7.026;2024-01-25T07:24:25;101804.59;;;5.94;63.06
59272;BME280;45043;51.068;7.026;2024-01-25T07:27:27;101814.75;;;5.99;61.88
59272;BME280;45043;51.068;7.026;2024-01-25T07:30:27;101815.56;;;5.99;61.84
59272;BME280;45043;51.068;7.026;2024-01-25T07:33:28;101817.81;;;6.04;61.52
59272;BME280;45043;51.068;7.026;2024-01-25T07:36:29;101817.00;;;6.13;61.63
59272;BME280;45043;51.068;7.026;2024-01-25T07:39:30;101810.34;;;6.19;61.24
59272;BME280;45043;51.068;7.026;2024-01-25T07:42:31;101814.00;;;6.27;60.83
59272;BME280;45043;51.068;7.026;2024-01-25T07:45:32;101808.44;;;6.30;60.43
59272;BME280;45043;51.068;7.026;2024-01-25T07:48:33;101814.13;;;6.16;60.24
59272;BME280;45043;51.068;7.026;2024-01-25T07:51:33;101811.38;;;5.97;60.48
59272;BME280;45043;51.068;7.026;2024-01-25T07:54:34;101818.81;;;5.82;60.79
59272;BME280;45043;51.068;7.026;2024-01-25T07:57:35;101823.78;;;5.75;60.87
59272;BME280;45043;51.068;7.026;2024-01-25T08:00:36;101826.13;;;5.69;61.23
59272;BME280;45043;51.068;7.026;2024-01-25T08:03:36;101833.59;;;5.63;61.29
59272;BME280;45043;51.068;7.026;2024-01-25T08:06:37;101839.75;;;5.53;60.92
59272;BME280;45043;51.068;7.026;2024-01-25T08:09:38;101840.13;;;5.38;60.88
59272;BME280;45043;51.068;7.026;2024-01-25T08:12:39;101830.50;;;5.37;61.84
59272;BME280;45043;51.068;7.026;2024-01-25T08:15:40;101839.56;;;5.45;62.21
59272;BME280;45043;51.068;7.026;2024-01-25T08:18:41;101843.63;;;5.49;62.09
59272;BME280;45043;51.068;7.026;2024-01-25T08:21:41;101835.47;;;5.52;61.79
59272;BME280;45043;51.068;7.026;2024-01-25T08:24:42;101831.50;;;5.57;61.84
59272;BME280;45043;51.068;7.026;2024-01-25T08:27:43;101831.19;;;5.60;61.79
59272;BME280;45043;51.068;7.026;2024-01-25T08:30:46;101831.78;;;5.64;61.75
59272;BME280;45043;51.068;7.026;2024-01-25T08:33:47;101817.41;;;5.68;61.72
59272;BME280;45043;51.068;7.026;2024-01-25T08:36:47;101817.09;;;5.71;61.93
59272;BME280;45043;51.068;7.026;2024-01-25T08:39:48;101814.47;;;5.71;61.46
59272;BME280;45043;51.068;7.026;2024-01-25T08:42:50;101818.13;;;5.80;61.56
59272;BME280;45043;51.068;7.026;2024-01-25T08:45:51;101813.16;;;5.56;61.61
59272;BME280;45043;51.068;7.026;2024-01-25T08:48:54;101820.75;;;5.28;62.13
59272;BME280;45043;51.068;7.026;2024-01-25T08:51:58;101822.75;;;5.04;62.33
59272;BME280;45043;51.068;7.026;2024-01-25T08:54:58;101825.97;;;4.86;63.04
59272;BME280;45043;51.068;7.026;2024-01-25T08:57:59;101819.06;;;4.74;63.49
59272;BME280;45043;51.068;7.026;2024-01-25T09:01:00;101824.34;;;4.63;63.89
59272;BME280;45043;51.068;7.026;2024-01-25T09:04:04;101820.75;;;4.64;63.83
59272;BME280;45043;51.068;7.026;2024-01-25T09:07:04;101816.41;;;4.74;64.09
59272;BME280;45043;51.068;7.026;2024-01-25T09:10:06;101810.09;;;4.77;63.72
59272;BME280;45043;51.068;7.026;2024-01-25T09:13:08;101809.63;;;4.72;64.36
59272;BME280;45043;51.068;7.026;2024-01-25T09:16:08;101818.59;;;4.69;64.03
59272;BME280;45043;51.068;7.026;2024-01-25T09:19:09;101820.75;;;4.64;64.52
59272;BME280;45043;51.068;7.026;2024-01-25T09:22:10;101826.16;;;4.62;65.15
59272;BME280;45043;51.068;7.026;2024-01-25T09:25:12;101833.56;;;4.68;64.79
59272;BME280;45043;51.068;7.026;2024-01-25T09:28:13;101839.38;;;4.83;65.08
59272;BME280;45043;51.068;7.026;2024-01-25T09:31:13;101841.50;;;4.89;65.01
59272;BME280;45043;51.068;7.026;2024-01-25T09:34:15;101848.66;;;4.99;64.87
59272;BME280;45043;51.068;7.026;2024-01-25T09:37:16;101852.66;;;5.14;64.54
59272;BME280;45043;51.068;7.026;2024-01-25T09:47:30;101840.13;;;5.38;64.17
59272;BME280;45043;51.068;7.026;2024-01-25T09:50:31;101837.19;;;5.41;64.37
59272;BME280;45043;51.068;7.026;2024-01-25T09:53:34;101855.94;;;5.38;64.51
59272;BME280;45043;51.068;7.026;2024-01-25T10:00:01;101854.13;;;5.07;65.17
59272;BME280;45043;51.068;7.026;2024-01-25T10:03:05;101850.69;;;4.95;65.49
59272;BME280;45043;51.068;7.026;2024-01-25T10:06:06;101857.28;;;4.89;66.02
59272;BME280;45043;51.068;7.026;2024-01-25T10:09:08;101881.47;;;4.94;65.93
59272;BME280;45043;51.068;7.026;2024-01-25T10:12:09;101887.22;;;4.88;66.13
59272;BME280;45043;51.068;7.026;2024-01-25T10:15:10;101893.66;;;4.96;66.18
59272;BME280;45043;51.068;7.026;2024-01-25T10:18:11;101880.72;;;5.04;66.55
59272;BME280;45043;51.068;7.026;2024-01-25T10:21:15;101875.19;;;5.07;66.56
59272;BME280;45043;51.068;7.026;2024-01-25T10:24:16;101875.88;;;5.20;66.49
59272;BME280;45043;51.068;7.026;2024-01-25T10:27:17;101875.59;;;5.23;66.28
59272;BME280;45043;51.068;7.026;2024-01-25T10:30:18;101863.56;;;5.09;66.48
59272;BME280;45043;51.068;7.026;2024-01-25T10:33:20;101853.72;;;5.11;66.51
59272;BME280;45043;51.068;7.026;2024-01-25T10:36:26;101848.09;;;5.16;66.51
59272;BME280;45043;51.068;7.026;2024-01-25T10:39:27;101847.13;;;5.17;66.16
59272;BME280;45043;51.068;7.026;2024-01-25T10:42:29;101843.91;;;5.13;66.22
59272;BME280;45043;51.068;7.026;2024-01-25T10:45:29;101853.09;;;5.19;66.55
59272;BME280;45043;51.068;7.026;2024-01-25T10:48:30;101841.59;;;5.31;66.38
59272;BME280;45043;51.068;7.026;2024-01-25T10:51:31;101844.16;;;5.43;65.78
59272;BME280;45043;51.068;7.026;2024-01-25T10:54:33;101834.88;;;5.48;65.61
59272;BME280;45043;51.068;7.026;2024-01-25T10:57:44;101820.94;;;5.57;65.40
59272;BME280;45043;51.068;7.026;2024-01-25T11:00:59;101812.63;;;5.62;64.96
59272;BME280;45043;51.068;7.026;2024-01-25T11:04:00;101825.75;;;5.52;65.17
59272;BME280;45043;51.068;7.026;2024-01-25T11:07:08;101809.28;;;5.60;64.94
59272;BME280;45043;51.068;7.026;2024-01-25T11:10:18;101797.41;;;5.75;64.54
59272;BME280;45043;51.068;7.026;2024-01-25T11:13:26;101796.06;;;5.81;64.22
59272;BME280;45043;51.068;7.026;2024-01-25T11:16:29;101798.19;;;5.87;64.23
59272;BME280;45043;51.068;7.026;2024-01-25T11:19:32;101784.44;;;5.93;63.91
59272;BME280;45043;51.068;7.026;2024-01-25T11:22:36;101784.31;;;5.95;63.66
59272;BME280;45043;51.068;7.026;2024-01-25T11:25:37;101776.97;;;5.98;63.60
59272;BME280;45043;51.068;7.026;2024-01-25T11:28:38;101771.19;;;6.14;63.54
59272;BME280;45043;51.068;7.026;2024-01-25T11:31:39;101767.59;;;6.25;63.12
59272;BME280;45043;51.068;7.026;2024-01-25T11:34:40;101772.03;;;6.24;62.79
59272;BME280;45043;51.068;7.026;2024-01-25T11:37:41;101776.59;;;6.22;62.97
59272;BME280;45043;51.068;7.026;2024-01-25T11:40:42;101771.78;;;6.27;62.69
59272;BME280;45043;51.068;7.026;2024-01-25T11:43:43;101763.72;;;6.29;62.78
59272;BME280;45043;51.068;7.026;2024-01-25T11:46:43;101761.06;;;6.29;62.26
59272;BME280;45043;51.068;7.026;2024-01-25T11:49:44;101758.72;;;6.35;62.10
59272;BME280;45043;51.068;7.026;2024-01-25T11:52:48;101747.75;;;6.40;61.74
59272;BME280;45043;51.068;7.026;2024-01-25T11:55:52;101741.22;;;6.54;61.42
59272;BME280;45043;51.068;7.026;2024-01-25T11:58:55;101741.22;;;6.54;61.05
59272;BME280;45043;51.068;7.026;2024-01-25T12:01:57;101745.09;;;6.40;60.90
59272;BME280;45043;51.068;7.026;2024-01-25T12:04:58;101747.91;;;6.38;60.93
59272;BME280;45043;51.068;7.026;2024-01-25T12:07:59;101735.66;;;6.47;60.53
59272;BME280;45043;51.068;7.026;2024-01-25T12:11:04;101740.13;;;6.47;59.83
59272;BME280;45043;51.068;7.026;2024-01-25T12:14:07;101737.19;;;6.40;59.97
59272;BME280;45043;51.068;7.026;2024-01-25T12:17:09;101738.03;;;6.41;59.92
59272;BME280;45043;51.068;7.026;2024-01-25T12:20:11;101731.50;;;6.45;59.70
59272;BME280;45043;51.068;7.026;2024-01-25T12:23:12;101699.81;;;6.45;59.54
59272;BME280;45043;51.068;7.026;2024-01-25T12:26:14;101703.16;;;6.37;58.94
59272;BME280;45043;51.068;7.026;2024-01-25T12:29:17;101716.88;;;6.31;59.03
59272;BME280;45043;51.068;7.026;2024-01-25T12:32:18;101720.09;;;6.34;58.99
59272;BME280;45043;51.068;7.026;2024-01-25T12:35:19;101721.91;;;6.44;58.94
59272;BME280;45043;51.068;7.026;2024-01-25T12:38:21;101713.00;;;6.45;58.40
59272;BME280;45043;51.068;7.026;2024-01-25T12:41:22;101710.66;;;6.51;58.56
59272;BME280;45043;51.068;7.026;2024-01-25T12:44:23;101703.13;;;6.56;58.18
59272;BME280;45043;51.068;7.026;2024-01-25T12:47:24;101699.66;;;6.56;58.14
59272;BME280;45043;51.068;7.026;2024-01-25T12:50:25;101717.19;;;6.57;57.42
59272;BME280;45043;51.068;7.026;2024-01-25T12:53:26;101708.00;;;6.42;57.31
59272;BME280;45043;51.068;7.026;2024-01-25T12:56:27;101688.72;;;6.31;57.34
59272;BME280;45043;51.068;7.026;2024-01-25T12:59:27;101692.88;;;6.34;56.62
59272;BME280;45043;51.068;7.026;2024-01-25T13:02:28;101699.66;;;6.27;56.47
59272;BME280;45043;51.068;7.026;2024-01-25T13:05:29;101697.44;;;6.22;56.50
59272;BME280;45043;51.068;7.026;2024-01-25T13:08:34;101686.47;;;6.17;56.25
59272;BME280;45043;51.068;7.026;2024-01-25T13:11:35;101675.09;;;6.26;56.37
59272;BME280;45043;51.068;7.026;2024-01-25T13:14:36;101670.78;;;6.35;55.98
59272;BME280;45043;51.068;7.026;2024-01-25T13:17:37;101657.19;;;6.39;56.16
59272;BME280;45043;51.068;7.026;2024-01-25T13:20:38;101654.66;;;6.48;55.69
59272;BME280;45043;51.068;7.026;2024-01-25T13:23:38;101650.88;;;6.60;55.47
59272;BME280;45043;51.068;7.026;2024-01-25T13:26:40;101643.66;;;6.62;54.97
59272;BME280;45043;51.068;7.026;2024-01-25T13:29:40;101656.00;;;6.71;54.81
59272;BME280;45043;51.068;7.026;2024-01-25T13:32:41;101650.16;;;6.77;54.78
59272;BME280;45043;51.068;7.026;2024-01-25T13:35:42;101644.06;;;6.86;54.82
59272;BME280;45043;51.068;7.026;2024-01-25T13:38:43;101632.19;;;7.00;54.45
59272;BME280;45043;51.068;7.026;2024-01-25T13:41:43;101629.66;;;7.08;54.07
59272;BME280;45043;51.068;7.026;2024-01-25T13:44:47;101638.00;;;7.14;53.86
59272;BME280;45043;51.068;7.026;2024-01-25T13:47:48;101626.59;;;7.13;53.69
59272;BME280;45043;51.068;7.026;2024-01-25T13:50:49;101628.81;;;7.08;53.86
59272;BME280;45043;51.068;7.026;2024-01-25T13:53:50;101628.78;;;7.18;53.92
59272;BME280;45043;51.068;7.026;2024-01-25T13:56:51;101631.25;;;7.29;53.76
59272;BME280;45043;51.068;7.026;2024-01-25T13:59:52;101636.88;;;7.44;53.27
59272;BME280;45043;51.068;7.026;2024-01-25T14:02:53;101620.47;;;7.40;52.91
59272;BME280;45043;51.068;7.026;2024-01-25T14:05:54;101611.72;;;7.40;52.97
59272;BME280;45043;51.068;7.026;2024-01-25T14:08:57;101600.84;;;7.43;52.97
59272;BME280;45043;51.068;7.026;2024-01-25T14:11:57;101602.59;;;7.52;52.90
59272;BME280;45043;51.068;7.026;2024-01-25T14:14:58;101596.72;;;7.58;52.79
59272;BME280;45043;51.068;7.026;2024-01-25T14:17:59;101597.38;;;7.60;52.46
59272;BME280;45043;51.068;7.026;2024-01-25T14:21:00;101589.56;;;7.68;52.45
59272;BME280;45043;51.068;7.026;2024-01-25T14:24:03;101596.50;;;7.69;52.43
59272;BME280;45043;51.068;7.026;2024-01-25T14:27:04;101601.09;;;7.67;52.38
59272;BME280;45043;51.068;7.026;2024-01-25T14:30:05;101608.66;;;7.62;52.26
59272;BME280;45043;51.068;7.026;2024-01-25T14:33:07;101599.66;;;7.55;52.51
59272;BME280;45043;51.068;7.026;2024-01-25T14:36:08;101587.84;;;7.49;52.50
59272;BME280;45043;51.068;7.026;2024-01-25T14:39:08;101583.84;;;7.45;52.29
59272;BME280;45043;51.068;7.026;2024-01-25T14:42:10;101573.34;;;7.35;52.46
59272;BME280;45043;51.068;7.026;2024-01-25T14:45:14;101559.78;;;7.21;52.83
59272;BME280;45043;51.068;7.026;2024-01-25T14:48:15;101561.81;;;7.09;53.15
59272;BME280;45043;51.068;7.026;2024-01-25T14:51:17;101571.13;;;7.03;53.30
59272;BME280;45043;51.068;7.026;2024-01-25T14:54:20;101569.59;;;7.01;53.49
59272;BME280;45043;51.068;7.026;2024-01-25T14:57:21;101569.59;;;7.01;53.58
59272;BME280;45043;51.068;7.026;2024-01-25T15:00:21;101555.13;;;7.05;53.37
59272;BME280;45043;51.068;7.026;2024-01-25T15:03:22;101551.25;;;7.09;53.60
59272;BME280;45043;51.068;7.026;2024-01-25T15:06:23;101549.63;;;7.16;53.30
59272;BME280;45043;51.068;7.026;2024-01-25T15:09:23;101552.00;;;7.19;53.57
59272;BME280;45043;51.068;7.026;2024-01-25T15:12:24;101553.53;;;7.22;53.36
59272;BME280;45043;51.068;7.026;2024-01-25T15:15:26;101546.41;;;7.22;53.03
59272;BME280;45043;51.068;7.026;2024-01-25T15:18:29;101546.72;;;7.19;53.29
59272;BME280;45043;51.068;7.026;2024-01-25T15:21:30;101540.88;;;7.16;53.35
59272;BME280;45043;51.068;7.026;2024-01-25T15:24:30;101535.38;;;7.09;53.56
59272;BME280;45043;51.068;7.026;2024-01-25T15:27:33;101549.19;;;7.03;53.54
59272;BME280;45043;51.068;7.026;2024-01-25T15:30:34;101542.22;;;7.02;53.65
59272;BME280;45043;51.068;7.026;2024-01-25T15:33:35;101538.91;;;7.00;53.35
59272;BME280;45043;51.068;7.026;2024-01-25T15:36:36;101537.81;;;6.93;53.74
59272;BME280;45043;51.068;7.026;2024-01-25T15:39:36;101529.34;;;6.89;53.81
59272;BME280;45043;51.068;7.026;2024-01-25T15:42:38;101533.41;;;6.83;54.05
59272;BME280;45043;51.068;7.026;2024-01-25T15:45:39;101527.03;;;6.76;53.93
59272;BME280;45043;51.068;7.026;2024-01-25T15:48:40;101524.38;;;6.76;54.11
59272;BME280;45043;51.068;7.026;2024-01-25T15:51:40;101518.56;;;6.73;54.10
59272;BME280;45043;51.068;7.026;2024-01-25T15:54:41;101513.41;;;6.71;53.79
59272;BME280;45043;51.068;7.026;2024-01-25T15:57:41;101516.66;;;6.65;54.04
59272;BME280;45043;51.068;7.026;2024-01-25T16:00:42;101511.66;;;6.62;54.05
59272;BME280;45043;51.068;7.026;2024-01-25T16:03:43;101517.50;;;6.56;53.82
59272;BME280;45043;51.068;7.026;2024-01-25T16:06:44;101520.41;;;6.53;54.02
59272;BME280;45043;51.068;7.026;2024-01-25T16:09:45;101510.84;;;6.52;54.01